• Join FlightAware (Why Join?)
  • Login
  • US Flag 
02:21AM EDT


 

Airport Tracker/Info


-or-


 

Live Flight TrackerFlight Track Log ✈ N101MA ✈ 12-Jul-2013 ✈ KMPO - KHTO

Flight Track Log - Related Links

Times and Time Zones

All times are in EDT time to prevent confusion due to time zone crossing. See the N101MA flight status page for this flight to view local times or setup timezone preferences in your user account.

Time Position Orientation Groundspeed Altitude Reporting Facility
EDT Latitude Longitude Course Direction KTS MPH feet Rate Location/Type
03:56PM 41.1226 -75.0432 90° East  Level Estimated
03:57PM 41.1547 -75.0040 43° Northeast  Level FlightAware Approximate
03:58PM 41.1868 -74.9647 43° Northeast  Level FlightAware Approximate
03:58PM 41.4547 -75.0797 62° Northeast 152 175 6,900  Level Boston Center
03:59PM 41.2188 -74.9254 43° Northeast  Level FlightAware Approximate
03:59PM 41.4847 -75.0367 47° Northeast 169 194 6,900  Level Boston Center
04:00PM 41.2139 -74.8678 56° Northeast  Level Estimated
04:00PM 41.5214 -74.9828 48° Northeast 169 194 6,900  Level Boston Center
04:01PM 41.2090 -74.8102 69° East  Level Estimated
04:01PM 41.5517 -74.9367 49° Northeast 175 201 6,900  Level Boston Center
04:02PM 41.2293 -74.7589 62° Northeast  Level FlightAware Approximate
04:02PM 41.5781 -74.8794 58° Northeast 175 201 6,900  Level Boston Center
04:03PM 41.2496 -74.7076 62° Northeast  Level FlightAware Approximate
04:03PM 41.5731 -74.8211 97° East 161 185 6,900  Level Boston Center
04:04PM 41.5744 -74.7489 89° East 166 191 6,900  Level Boston Center
04:05PM 41.5839 -74.6936 77° East 166 191 7,000  Climbing Boston Center
04:06PM 41.5853 -74.6217 88° East 166 191 6,900  Descending Boston Center
04:07PM 41.5781 -74.5631 99° East 171 197 7,000  Climbing Boston Center
04:08PM 41.5792 -74.4964 89° East 171 197 7,000  Level Boston Center
04:09PM 41.5783 -74.4411 91° East 166 191 7,000 -60 Level Boston Center
04:10PM 41.5731 -74.3714 96° East 166 191 6,900  Descending Boston Center
04:11PM 41.5722 -74.3103 91° East 166 191 7,000  Climbing Boston Center
04:12PM 41.5692 -74.2408 93° East 166 191 7,000 -60 Level Boston Center
04:13PM 41.5658 -74.1853 95° East 166 191 6,900 -60 Descending Boston Center
04:14PM 41.5647 -74.1158 91° East 166 191 6,900  Level Boston Center
04:15PM 41.5614 -74.0519 94° East 166 191 6,900 -360 Level Boston Center
04:16PM 41.5583 -73.9908 94° East 172 198 6,200 -480 Descending Boston Center
04:17PM 41.5550 -73.9131 93° East 180 207 6,000 -120 Descending Boston Center
04:18PM 41.5536 -73.8575 92° East 175 201 6,000  Level Boston Center
04:19PM 41.5503 -73.7881 94° East 170 196 6,000  Level Boston Center
04:20PM 41.5469 -73.7328 95° East 170 196 6,000  Level Boston Center
04:21PM 41.5500 -73.6833 85° East 175 201 6,000  Level New York TRACON
04:22PM 41.5500 -73.6167 90° East 172 198 6,000  Level New York TRACON
04:23PM 41.5333 -73.5500 108° East 167 192 6,000  Level New York TRACON
04:24PM 41.5333 -73.5000 90° East 168 193 6,000 -300 Level New York TRACON
04:25PM 41.5000 -73.4500 132° Southeast 178 205 5,500 -540 Descending New York TRACON
04:26PM 41.4500 -73.4167 153° Southeast 199 229 5,000 -600 Descending New York TRACON
04:27PM 41.4167 -73.3667 132° Southeast 190 219 4,400 -540 Descending New York TRACON
04:28PM 41.3667 -73.3333 153° Southeast 187 215 3,900 -240 Descending New York TRACON
04:29PM 41.3333 -73.2833 132° Southeast 173 199 4,000  Climbing New York TRACON
04:30PM 41.2833 -73.2500 153° Southeast 166 191 4,000 -180 Level New York TRACON
04:31PM 41.2500 -73.2167 143° Southeast 181 208 3,700 -300 Descending New York TRACON
04:32PM 41.2333 -73.1667 114° Southeast 177 204 3,500 -120 Descending New York TRACON
04:33PM 41.2167 -73.1000 108° East 160 184 3,500 -360 Level New York TRACON
04:34PM 41.2167 -73.0500 90° East 169 194 2,900 -300 Descending New York TRACON
04:35PM 41.2000 -72.9833 108° East 167 192 3,000  Climbing New York TRACON
04:36PM 41.2000 -72.9333 90° East 162 186 3,000  Level New York TRACON